sensor_id;sensor_type;location;lat;lon;timestamp;P1;durP1;ratioP1;P2;durP2;ratioP2
80651;SDS011;71302;45.726;-121.810;2023-07-09T00:03:14;2.22;;;1.83;;
80651;SDS011;71302;45.726;-121.810;2023-07-09T00:05:41;3.60;;;2.00;;
80651;SDS011;71302;45.726;-121.810;2023-07-09T00:08:19;3.83;;;2.20;;
80651;SDS011;71302;45.726;-121.810;2023-07-09T00:10:48;3.10;;;1.95;;
80651;SDS011;71302;45.726;-121.810;2023-07-09T00:13:14;2.47;;;1.98;;
80651;SDS011;71302;45.726;-121.810;2023-07-09T00:15:41;2.53;;;2.00;;
80651;SDS011;71302;45.726;-121.810;2023-07-09T00:18:08;5.25;;;2.00;;
80651;SDS011;71302;45.726;-121.810;2023-07-09T00:20:35;2.35;;;1.98;;
80651;SDS011;71302;45.726;-121.810;2023-07-09T00:23:02;2.38;;;2.15;;
80651;SDS011;71302;45.726;-121.810;2023-07-09T00:25:30;2.47;;;2.00;;
80651;SDS011;71302;45.726;-121.810;2023-07-09T00:28:01;2.53;;;1.90;;
80651;SDS011;71302;45.726;-121.810;2023-07-09T00:30:28;4.13;;;2.47;;
80651;SDS011;71302;45.726;-121.810;2023-07-09T00:32:56;2.75;;;1.98;;
80651;SDS011;71302;45.726;-121.810;2023-07-09T00:35:23;2.88;;;1.83;;
80651;SDS011;71302;45.726;-121.810;2023-07-09T00:37:50;3.83;;;2.50;;
80651;SDS011;71302;45.726;-121.810;2023-07-09T00:40:19;2.50;;;2.03;;
80651;SDS011;71302;45.726;-121.810;2023-07-09T00:42:46;5.43;;;2.08;;
80651;SDS011;71302;45.726;-121.810;2023-07-09T00:50:21;2.90;;;1.92;;
80651;SDS011;71302;45.726;-121.810;2023-07-09T00:52:59;4.25;;;2.42;;
80651;SDS011;71302;45.726;-121.810;2023-07-09T00:55:33;2.42;;;1.98;;
80651;SDS011;71302;45.726;-121.810;2023-07-09T00:58:03;3.38;;;2.30;;
80651;SDS011;71302;45.726;-121.810;2023-07-09T01:00:33;3.63;;;2.13;;
80651;SDS011;71302;45.726;-121.810;2023-07-09T01:03:08;2.95;;;2.13;;
80651;SDS011;71302;45.726;-121.810;2023-07-09T01:05:36;3.38;;;2.83;;
80651;SDS011;71302;45.726;-121.810;2023-07-09T01:08:03;3.88;;;2.05;;
80651;SDS011;71302;45.726;-121.810;2023-07-09T01:10:30;3.28;;;1.95;;
80651;SDS011;71302;45.726;-121.810;2023-07-09T01:12:57;2.83;;;2.03;;
80651;SDS011;71302;45.726;-121.810;2023-07-09T01:15:23;4.05;;;2.22;;
80651;SDS011;71302;45.726;-121.810;2023-07-09T01:17:50;3.97;;;2.60;;
80651;SDS011;71302;45.726;-121.810;2023-07-09T01:20:19;3.20;;;1.90;;
80651;SDS011;71302;45.726;-121.810;2023-07-09T01:22:50;3.53;;;2.15;;
80651;SDS011;71302;45.726;-121.810;2023-07-09T01:25:20;3.25;;;2.10;;
80651;SDS011;71302;45.726;-121.810;2023-07-09T01:27:47;3.47;;;2.00;;
80651;SDS011;71302;45.726;-121.810;2023-07-09T01:30:18;3.55;;;2.90;;
80651;SDS011;71302;45.726;-121.810;2023-07-09T01:32:48;3.58;;;2.40;;
80651;SDS011;71302;45.726;-121.810;2023-07-09T01:35:16;2.42;;;2.22;;
80651;SDS011;71302;45.726;-121.810;2023-07-09T01:37:44;3.42;;;2.17;;
80651;SDS011;71302;45.726;-121.810;2023-07-09T01:40:13;3.35;;;2.38;;
80651;SDS011;71302;45.726;-121.810;2023-07-09T01:42:40;3.08;;;2.10;;
80651;SDS011;71302;45.726;-121.810;2023-07-09T01:45:07;4.55;;;2.03;;
80651;SDS011;71302;45.726;-121.810;2023-07-09T01:47:36;2.60;;;2.03;;
80651;SDS011;71302;45.726;-121.810;2023-07-09T01:50:03;3.13;;;2.03;;
80651;SDS011;71302;45.726;-121.810;2023-07-09T01:52:31;2.53;;;1.98;;
80651;SDS011;71302;45.726;-121.810;2023-07-09T01:54:58;3.15;;;2.08;;
80651;SDS011;71302;45.726;-121.810;2023-07-09T01:57:26;5.25;;;2.25;;
80651;SDS011;71302;45.726;-121.810;2023-07-09T01:59:58;2.55;;;2.28;;
80651;SDS011;71302;45.726;-121.810;2023-07-09T02:02:25;3.42;;;2.08;;
80651;SDS011;71302;45.726;-121.810;2023-07-09T02:04:53;3.25;;;1.92;;
80651;SDS011;71302;45.726;-121.810;2023-07-09T02:07:20;2.33;;;2.05;;
80651;SDS011;71302;45.726;-121.810;2023-07-09T02:09:47;4.20;;;2.10;;
80651;SDS011;71302;45.726;-121.810;2023-07-09T02:12:14;3.08;;;1.92;;
80651;SDS011;71302;45.726;-121.810;2023-07-09T02:14:41;3.95;;;2.20;;
80651;SDS011;71302;45.726;-121.810;2023-07-09T02:17:09;3.53;;;2.03;;
80651;SDS011;71302;45.726;-121.810;2023-07-09T02:19:35;4.22;;;2.30;;
80651;SDS011;71302;45.726;-121.810;2023-07-09T02:22:02;4.10;;;1.92;;
80651;SDS011;71302;45.726;-121.810;2023-07-09T02:24:29;2.60;;;2.30;;
80651;SDS011;71302;45.726;-121.810;2023-07-09T02:26:56;3.78;;;2.17;;
80651;SDS011;71302;45.726;-121.810;2023-07-09T02:29:24;2.38;;;1.70;;
80651;SDS011;71302;45.726;-121.810;2023-07-09T02:31:51;4.00;;;2.10;;
80651;SDS011;71302;45.726;-121.810;2023-07-09T02:34:19;2.88;;;2.10;;
80651;SDS011;71302;45.726;-121.810;2023-07-09T02:36:47;3.67;;;2.20;;
80651;SDS011;71302;45.726;-121.810;2023-07-09T02:39:13;2.80;;;2.05;;
80651;SDS011;71302;45.726;-121.810;2023-07-09T02:41:40;2.72;;;2.20;;
80651;SDS011;71302;45.726;-121.810;2023-07-09T02:44:07;3.38;;;3.10;;
80651;SDS011;71302;45.726;-121.810;2023-07-09T02:46:34;3.53;;;2.33;;
80651;SDS011;71302;45.726;-121.810;2023-07-09T02:49:02;3.42;;;2.30;;
80651;SDS011;71302;45.726;-121.810;2023-07-09T02:51:29;3.13;;;2.10;;
80651;SDS011;71302;45.726;-121.810;2023-07-09T02:53:56;3.80;;;2.10;;
80651;SDS011;71302;45.726;-121.810;2023-07-09T02:56:23;2.47;;;2.28;;
80651;SDS011;71302;45.726;-121.810;2023-07-09T02:58:50;3.25;;;2.38;;
80651;SDS011;71302;45.726;-121.810;2023-07-09T03:01:20;3.00;;;2.60;;
80651;SDS011;71302;45.726;-121.810;2023-07-09T03:03:58;3.72;;;2.10;;
80651;SDS011;71302;45.726;-121.810;2023-07-09T03:06:25;3.28;;;2.08;;
80651;SDS011;71302;45.726;-121.810;2023-07-09T03:08:51;4.30;;;2.50;;
80651;SDS011;71302;45.726;-121.810;2023-07-09T03:11:19;4.13;;;2.33;;
80651;SDS011;71302;45.726;-121.810;2023-07-09T03:13:47;3.67;;;2.00;;
80651;SDS011;71302;45.726;-121.810;2023-07-09T03:16:14;3.72;;;2.05;;
80651;SDS011;71302;45.726;-121.810;2023-07-09T03:18:40;5.10;;;2.03;;
80651;SDS011;71302;45.726;-121.810;2023-07-09T03:21:07;2.47;;;2.25;;
80651;SDS011;71302;45.726;-121.810;2023-07-09T03:23:34;3.42;;;2.10;;
80651;SDS011;71302;45.726;-121.810;2023-07-09T03:26:00;6.40;;;3.00;;
80651;SDS011;71302;45.726;-121.810;2023-07-09T03:28:28;3.47;;;2.33;;
80651;SDS011;71302;45.726;-121.810;2023-07-09T03:30:55;4.22;;;2.08;;
80651;SDS011;71302;45.726;-121.810;2023-07-09T03:33:22;4.53;;;2.65;;
80651;SDS011;71302;45.726;-121.810;2023-07-09T03:35:50;3.33;;;2.30;;
80651;SDS011;71302;45.726;-121.810;2023-07-09T03:38:17;2.60;;;2.25;;
80651;SDS011;71302;45.726;-121.810;2023-07-09T03:40:44;3.08;;;2.50;;
80651;SDS011;71302;45.726;-121.810;2023-07-09T03:43:11;2.78;;;2.13;;
80651;SDS011;71302;45.726;-121.810;2023-07-09T03:45:38;3.42;;;2.38;;
80651;SDS011;71302;45.726;-121.810;2023-07-09T03:48:04;2.83;;;2.20;;
80651;SDS011;71302;45.726;-121.810;2023-07-09T03:50:31;2.25;;;1.80;;
80651;SDS011;71302;45.726;-121.810;2023-07-09T03:52:58;5.43;;;2.30;;
80651;SDS011;71302;45.726;-121.810;2023-07-09T03:55:25;2.30;;;2.10;;
80651;SDS011;71302;45.726;-121.810;2023-07-09T03:57:55;5.15;;;2.05;;
80651;SDS011;71302;45.726;-121.810;2023-07-09T04:00:22;5.20;;;2.30;;
80651;SDS011;71302;45.726;-121.810;2023-07-09T04:02:51;3.92;;;2.15;;
80651;SDS011;71302;45.726;-121.810;2023-07-09T04:05:17;3.22;;;2.08;;
80651;SDS011;71302;45.726;-121.810;2023-07-09T04:07:44;2.90;;;2.50;;
80651;SDS011;71302;45.726;-121.810;2023-07-09T04:10:11;3.42;;;2.50;;
80651;SDS011;71302;45.726;-121.810;2023-07-09T04:12:38;2.75;;;2.17;;
80651;SDS011;71302;45.726;-121.810;2023-07-09T04:15:05;5.97;;;2.30;;
80651;SDS011;71302;45.726;-121.810;2023-07-09T04:17:32;2.75;;;1.95;;
80651;SDS011;71302;45.726;-121.810;2023-07-09T04:19:58;2.38;;;1.77;;
80651;SDS011;71302;45.726;-121.810;2023-07-09T04:22:25;2.47;;;1.92;;
80651;SDS011;71302;45.726;-121.810;2023-07-09T04:24:52;7.63;;;2.00;;
80651;SDS011;71302;45.726;-121.810;2023-07-09T04:27:18;3.50;;;1.83;;
80651;SDS011;71302;45.726;-121.810;2023-07-09T04:29:45;3.65;;;1.88;;
80651;SDS011;71302;45.726;-121.810;2023-07-09T04:32:14;2.58;;;2.10;;
80651;SDS011;71302;45.726;-121.810;2023-07-09T04:34:41;4.03;;;1.80;;
80651;SDS011;71302;45.726;-121.810;2023-07-09T04:37:07;2.75;;;2.00;;
80651;SDS011;71302;45.726;-121.810;2023-07-09T04:39:35;2.42;;;1.98;;
80651;SDS011;71302;45.726;-121.810;2023-07-09T04:42:02;5.82;;;2.17;;
80651;SDS011;71302;45.726;-121.810;2023-07-09T04:44:29;2.15;;;1.95;;
80651;SDS011;71302;45.726;-121.810;2023-07-09T04:46:56;2.55;;;2.03;;
80651;SDS011;71302;45.726;-121.810;2023-07-09T04:49:22;2.55;;;1.58;;
80651;SDS011;71302;45.726;-121.810;2023-07-09T04:51:49;3.40;;;2.00;;
80651;SDS011;71302;45.726;-121.810;2023-07-09T04:54:15;3.80;;;2.08;;
80651;SDS011;71302;45.726;-121.810;2023-07-09T04:56:42;2.10;;;1.90;;
80651;SDS011;71302;45.726;-121.810;2023-07-09T04:59:12;2.72;;;1.95;;
80651;SDS011;71302;45.726;-121.810;2023-07-09T05:01:39;3.35;;;2.83;;
80651;SDS011;71302;45.726;-121.810;2023-07-09T05:04:06;4.00;;;1.85;;
80651;SDS011;71302;45.726;-121.810;2023-07-09T05:06:33;2.38;;;2.00;;
80651;SDS011;71302;45.726;-121.810;2023-07-09T05:09:00;1.88;;;1.77;;
80651;SDS011;71302;45.726;-121.810;2023-07-09T05:11:27;3.05;;;2.00;;
80651;SDS011;71302;45.726;-121.810;2023-07-09T05:13:54;3.70;;;2.00;;
80651;SDS011;71302;45.726;-121.810;2023-07-09T05:16:20;3.40;;;1.77;;
80651;SDS011;71302;45.726;-121.810;2023-07-09T05:18:47;2.78;;;1.88;;
80651;SDS011;71302;45.726;-121.810;2023-07-09T05:21:13;2.97;;;1.92;;
80651;SDS011;71302;45.726;-121.810;2023-07-09T05:23:40;3.03;;;1.77;;
80651;SDS011;71302;45.726;-121.810;2023-07-09T05:28:44;1.50;;;1.40;;
80651;SDS011;71302;45.726;-121.810;2023-07-09T05:31:11;1.95;;;1.35;;
80651;SDS011;71302;45.726;-121.810;2023-07-09T05:33:37;1.65;;;1.55;;
80651;SDS011;71302;45.726;-121.810;2023-07-09T05:36:04;1.42;;;1.33;;
80651;SDS011;71302;45.726;-121.810;2023-07-09T05:38:32;1.45;;;1.35;;
80651;SDS011;71302;45.726;-121.810;2023-07-09T05:41:00;1.63;;;1.52;;
80651;SDS011;71302;45.726;-121.810;2023-07-09T05:43:27;2.08;;;1.63;;
80651;SDS011;71302;45.726;-121.810;2023-07-09T05:45:54;2.78;;;1.60;;
80651;SDS011;71302;45.726;-121.810;2023-07-09T05:48:21;1.48;;;1.38;;
80651;SDS011;71302;45.726;-121.810;2023-07-09T05:50:48;1.48;;;1.38;;
80651;SDS011;71302;45.726;-121.810;2023-07-09T05:53:14;1.77;;;1.50;;
80651;SDS011;71302;45.726;-121.810;2023-07-09T05:55:41;1.20;;;1.10;;
80651;SDS011;71302;45.726;-121.810;2023-07-09T05:58:08;1.42;;;1.30;;
80651;SDS011;71302;45.726;-121.810;2023-07-09T06:00:34;1.65;;;1.52;;
80651;SDS011;71302;45.726;-121.810;2023-07-09T06:03:03;1.63;;;1.52;;
80651;SDS011;71302;45.726;-121.810;2023-07-09T06:05:33;1.65;;;1.55;;
80651;SDS011;71302;45.726;-121.810;2023-07-09T06:07:59;1.40;;;1.30;;
80651;SDS011;71302;45.726;-121.810;2023-07-09T06:10:26;2.00;;;1.33;;
80651;SDS011;71302;45.726;-121.810;2023-07-09T06:12:53;1.50;;;1.40;;
80651;SDS011;71302;45.726;-121.810;2023-07-09T06:15:19;2.17;;;1.33;;
80651;SDS011;71302;45.726;-121.810;2023-07-09T06:17:46;1.63;;;1.50;;
80651;SDS011;71302;45.726;-121.810;2023-07-09T06:20:12;1.73;;;1.55;;
80651;SDS011;71302;45.726;-121.810;2023-07-09T06:22:40;1.48;;;1.38;;
80651;SDS011;71302;45.726;-121.810;2023-07-09T06:25:07;1.60;;;1.50;;
80651;SDS011;71302;45.726;-121.810;2023-07-09T06:27:34;1.95;;;1.77;;
80651;SDS011;71302;45.726;-121.810;2023-07-09T06:30:00;1.25;;;1.15;;
80651;SDS011;71302;45.726;-121.810;2023-07-09T06:32:27;2.03;;;1.23;;
80651;SDS011;71302;45.726;-121.810;2023-07-09T06:34:54;1.60;;;1.50;;
80651;SDS011;71302;45.726;-121.810;2023-07-09T06:37:20;1.60;;;1.50;;
80651;SDS011;71302;45.726;-121.810;2023-07-09T06:39:47;1.52;;;1.42;;
80651;SDS011;71302;45.726;-121.810;2023-07-09T06:42:14;2.20;;;1.50;;
80651;SDS011;71302;45.726;-121.810;2023-07-09T06:44:41;1.40;;;1.27;;
80651;SDS011;71302;45.726;-121.810;2023-07-09T06:47:07;1.63;;;1.52;;
80651;SDS011;71302;45.726;-121.810;2023-07-09T06:49:34;1.48;;;1.38;;
80651;SDS011;71302;45.726;-121.810;2023-07-09T06:52:00;2.13;;;1.42;;
80651;SDS011;71302;45.726;-121.810;2023-07-09T06:54:27;1.80;;;1.70;;
80651;SDS011;71302;45.726;-121.810;2023-07-09T06:56:54;2.03;;;1.40;;
80651;SDS011;71302;45.726;-121.810;2023-07-09T06:59:20;1.48;;;1.38;;
80651;SDS011;71302;45.726;-121.810;2023-07-09T07:01:47;2.53;;;1.73;;
80651;SDS011;71302;45.726;-121.810;2023-07-09T07:04:13;1.92;;;1.52;;
80651;SDS011;71302;45.726;-121.810;2023-07-09T07:06:41;1.80;;;1.70;;
80651;SDS011;71302;45.726;-121.810;2023-07-09T07:09:07;1.60;;;1.23;;
80651;SDS011;71302;45.726;-121.810;2023-07-09T07:11:34;2.03;;;1.83;;
80651;SDS011;71302;45.726;-121.810;2023-07-09T07:14:00;1.35;;;1.25;;
80651;SDS011;71302;45.726;-121.810;2023-07-09T07:16:27;2.03;;;1.48;;
80651;SDS011;71302;45.726;-121.810;2023-07-09T07:18:54;1.42;;;1.30;;
80651;SDS011;71302;45.726;-121.810;2023-07-09T07:21:20;1.52;;;1.42;;
80651;SDS011;71302;45.726;-121.810;2023-07-09T07:23:47;2.42;;;1.40;;
80651;SDS011;71302;45.726;-121.810;2023-07-09T07:26:13;1.40;;;1.23;;
80651;SDS011;71302;45.726;-121.810;2023-07-09T07:28:40;1.67;;;1.40;;
80651;SDS011;71302;45.726;-121.810;2023-07-09T07:31:07;2.63;;;1.40;;
80651;SDS011;71302;45.726;-121.810;2023-07-09T07:33:34;2.20;;;1.60;;
80651;SDS011;71302;45.726;-121.810;2023-07-09T07:36:03;1.85;;;1.70;;
80651;SDS011;71302;45.726;-121.810;2023-07-09T07:38:30;2.00;;;1.80;;
80651;SDS011;71302;45.726;-121.810;2023-07-09T07:40:57;1.63;;;1.40;;
80651;SDS011;71302;45.726;-121.810;2023-07-09T07:43:23;1.17;;;1.08;;
80651;SDS011;71302;45.726;-121.810;2023-07-09T07:45:50;1.65;;;1.42;;
80651;SDS011;71302;45.726;-121.810;2023-07-09T07:48:17;1.90;;;1.50;;
80651;SDS011;71302;45.726;-121.810;2023-07-09T07:50:45;2.72;;;1.75;;
80651;SDS011;71302;45.726;-121.810;2023-07-09T07:53:13;1.33;;;1.23;;
80651;SDS011;71302;45.726;-121.810;2023-07-09T07:55:40;1.80;;;1.40;;
80651;SDS011;71302;45.726;-121.810;2023-07-09T07:58:11;1.30;;;1.20;;
80651;SDS011;71302;45.726;-121.810;2023-07-09T08:00:38;1.55;;;1.35;;
80651;SDS011;71302;45.726;-121.810;2023-07-09T08:03:04;1.40;;;1.30;;
80651;SDS011;71302;45.726;-121.810;2023-07-09T08:05:31;2.42;;;1.67;;
80651;SDS011;71302;45.726;-121.810;2023-07-09T08:07:57;1.73;;;1.45;;
80651;SDS011;71302;45.726;-121.810;2023-07-09T08:10:24;1.33;;;1.23;;
80651;SDS011;71302;45.726;-121.810;2023-07-09T08:12:51;1.55;;;1.45;;
80651;SDS011;71302;45.726;-121.810;2023-07-09T08:15:22;2.08;;;1.50;;
80651;SDS011;71302;45.726;-121.810;2023-07-09T08:17:48;1.60;;;1.50;;
80651;SDS011;71302;45.726;-121.810;2023-07-09T08:20:15;4.45;;;1.42;;
80651;SDS011;71302;45.726;-121.810;2023-07-09T08:22:42;1.50;;;1.40;;
80651;SDS011;71302;45.726;-121.810;2023-07-09T08:25:09;1.67;;;1.42;;
80651;SDS011;71302;45.726;-121.810;2023-07-09T08:27:35;1.83;;;1.70;;
80651;SDS011;71302;45.726;-121.810;2023-07-09T08:30:02;1.60;;;1.50;;
80651;SDS011;71302;45.726;-121.810;2023-07-09T08:32:29;1.75;;;1.50;;
80651;SDS011;71302;45.726;-121.810;2023-07-09T08:34:55;1.70;;;1.60;;
80651;SDS011;71302;45.726;-121.810;2023-07-09T08:37:22;1.70;;;1.58;;
80651;SDS011;71302;45.726;-121.810;2023-07-09T08:39:49;1.88;;;1.50;;
80651;SDS011;71302;45.726;-121.810;2023-07-09T08:42:27;3.22;;;1.58;;
80651;SDS011;71302;45.726;-121.810;2023-07-09T08:47:31;1.50;;;1.38;;
80651;SDS011;71302;45.726;-121.810;2023-07-09T08:52:36;1.63;;;1.52;;
80651;SDS011;71302;45.726;-121.810;2023-07-09T08:55:04;1.23;;;1.13;;
80651;SDS011;71302;45.726;-121.810;2023-07-09T08:57:34;1.90;;;1.77;;
80651;SDS011;71302;45.726;-121.810;2023-07-09T09:00:04;1.52;;;1.42;;
80651;SDS011;71302;45.726;-121.810;2023-07-09T09:02:36;3.17;;;1.70;;
80651;SDS011;71302;45.726;-121.810;2023-07-09T09:05:05;1.55;;;1.45;;
80651;SDS011;71302;45.726;-121.810;2023-07-09T09:07:39;1.60;;;1.50;;
80651;SDS011;71302;45.726;-121.810;2023-07-09T09:10:11;1.98;;;1.45;;
80651;SDS011;71302;45.726;-121.810;2023-07-09T09:12:43;1.95;;;1.38;;
80651;SDS011;71302;45.726;-121.810;2023-07-09T09:15:17;1.60;;;1.50;;
80651;SDS011;71302;45.726;-121.810;2023-07-09T09:17:44;1.38;;;1.27;;
80651;SDS011;71302;45.726;-121.810;2023-07-09T09:20:19;1.75;;;1.58;;
80651;SDS011;71302;45.726;-121.810;2023-07-09T09:22:50;1.40;;;1.30;;
80651;SDS011;71302;45.726;-121.810;2023-07-09T09:25:27;1.55;;;1.45;;
80651;SDS011;71302;45.726;-121.810;2023-07-09T09:27:54;1.40;;;1.30;;
80651;SDS011;71302;45.726;-121.810;2023-07-09T09:30:22;1.42;;;1.33;;
80651;SDS011;71302;45.726;-121.810;2023-07-09T09:32:57;1.45;;;1.35;;
80651;SDS011;71302;45.726;-121.810;2023-07-09T09:35:34;1.60;;;1.50;;
80651;SDS011;71302;45.726;-121.810;2023-07-09T09:38:01;1.73;;;1.63;;
80651;SDS011;71302;45.726;-121.810;2023-07-09T09:40:32;2.33;;;1.40;;
80651;SDS011;71302;45.726;-121.810;2023-07-09T09:42:59;1.63;;;1.50;;
80651;SDS011;71302;45.726;-121.810;2023-07-09T09:45:34;1.35;;;1.17;;
80651;SDS011;71302;45.726;-121.810;2023-07-09T09:48:05;2.30;;;1.58;;
80651;SDS011;71302;45.726;-121.810;2023-07-09T09:50:36;2.00;;;1.80;;
80651;SDS011;71302;45.726;-121.810;2023-07-09T09:53:06;1.55;;;1.45;;
80651;SDS011;71302;45.726;-121.810;2023-07-09T09:55:33;1.63;;;1.52;;
80651;SDS011;71302;45.726;-121.810;2023-07-09T09:58:00;2.05;;;1.85;;
80651;SDS011;71302;45.726;-121.810;2023-07-09T10:00:28;1.45;;;1.35;;
80651;SDS011;71302;45.726;-121.810;2023-07-09T10:02:59;1.90;;;1.80;;
80651;SDS011;71302;45.726;-121.810;2023-07-09T10:05:29;1.98;;;1.77;;
80651;SDS011;71302;45.726;-121.810;2023-07-09T10:08:09;1.38;;;1.27;;
80651;SDS011;71302;45.726;-121.810;2023-07-09T10:10:39;1.55;;;1.45;;
80651;SDS011;71302;45.726;-121.810;2023-07-09T10:16:01;1.65;;;1.55;;
80651;SDS011;71302;45.726;-121.810;2023-07-09T10:18:36;1.88;;;1.70;;
80651;SDS011;71302;45.726;-121.810;2023-07-09T10:21:07;1.60;;;1.50;;
80651;SDS011;71302;45.726;-121.810;2023-07-09T10:38:59;1.70;;;1.60;;
80651;SDS011;71302;45.726;-121.810;2023-07-09T10:41:26;1.45;;;1.35;;
80651;SDS011;71302;45.726;-121.810;2023-07-09T10:46:26;1.50;;;1.40;;
80651;SDS011;71302;45.726;-121.810;2023-07-09T10:48:53;1.50;;;1.40;;
80651;SDS011;71302;45.726;-121.810;2023-07-09T10:56:37;1.67;;;1.58;;
80651;SDS011;71302;45.726;-121.810;2023-07-09T11:01:38;1.63;;;1.50;;
80651;SDS011;71302;45.726;-121.810;2023-07-09T11:04:09;1.50;;;1.40;;
80651;SDS011;71302;45.726;-121.810;2023-07-09T11:06:41;1.70;;;1.60;;
80651;SDS011;71302;45.726;-121.810;2023-07-09T11:09:17;1.90;;;1.40;;
80651;SDS011;71302;45.726;-121.810;2023-07-09T11:11:48;2.05;;;1.45;;
80651;SDS011;71302;45.726;-121.810;2023-07-09T11:14:37;1.50;;;1.40;;
80651;SDS011;71302;45.726;-121.810;2023-07-09T11:17:03;1.60;;;1.50;;
80651;SDS011;71302;45.726;-121.810;2023-07-09T11:19:30;1.67;;;1.58;;
80651;SDS011;71302;45.726;-121.810;2023-07-09T11:21:58;1.88;;;1.48;;
80651;SDS011;71302;45.726;-121.810;2023-07-09T11:27:19;1.35;;;1.25;;
80651;SDS011;71302;45.726;-121.810;2023-07-09T11:29:47;1.60;;;1.50;;
80651;SDS011;71302;45.726;-121.810;2023-07-09T11:32:18;1.58;;;1.48;;
80651;SDS011;71302;45.726;-121.810;2023-07-09T11:34:45;1.73;;;1.60;;
80651;SDS011;71302;45.726;-121.810;2023-07-09T11:37:12;1.20;;;1.10;;
80651;SDS011;71302;45.726;-121.810;2023-07-09T11:39:42;1.55;;;1.30;;
80651;SDS011;71302;45.726;-121.810;2023-07-09T11:42:28;1.83;;;1.73;;
80651;SDS011;71302;45.726;-121.810;2023-07-09T11:44:57;1.27;;;1.17;;
80651;SDS011;71302;45.726;-121.810;2023-07-09T11:47:27;1.50;;;1.33;;
80651;SDS011;71302;45.726;-121.810;2023-07-09T11:50:05;1.17;;;1.10;;
80651;SDS011;71302;45.726;-121.810;2023-07-09T11:57:57;1.52;;;1.42;;
80651;SDS011;71302;45.726;-121.810;2023-07-09T12:00:24;1.25;;;1.15;;
80651;SDS011;71302;45.726;-121.810;2023-07-09T12:02:54;1.60;;;1.50;;
80651;SDS011;71302;45.726;-121.810;2023-07-09T12:05:27;1.35;;;1.25;;
80651;SDS011;71302;45.726;-121.810;2023-07-09T12:07:55;1.65;;;1.55;;
80651;SDS011;71302;45.726;-121.810;2023-07-09T12:10:23;1.48;;;1.38;;
80651;SDS011;71302;45.726;-121.810;2023-07-09T12:12:57;1.98;;;1.33;;
80651;SDS011;71302;45.726;-121.810;2023-07-09T12:15:27;1.00;;;1.00;;
80651;SDS011;71302;45.726;-121.810;2023-07-09T12:17:58;1.77;;;1.20;;
80651;SDS011;71302;45.726;-121.810;2023-07-09T12:20:25;1.45;;;1.35;;
80651;SDS011;71302;45.726;-121.810;2023-07-09T12:22:52;1.60;;;1.50;;
80651;SDS011;71302;45.726;-121.810;2023-07-09T12:25:26;1.58;;;1.48;;
80651;SDS011;71302;45.726;-121.810;2023-07-09T12:27:53;1.58;;;1.48;;
80651;SDS011;71302;45.726;-121.810;2023-07-09T12:30:20;1.42;;;1.33;;
80651;SDS011;71302;45.726;-121.810;2023-07-09T12:32:47;2.08;;;1.50;;
80651;SDS011;71302;45.726;-121.810;2023-07-09T12:35:23;2.15;;;1.38;;
80651;SDS011;71302;45.726;-121.810;2023-07-09T12:37:50;2.13;;;1.35;;
80651;SDS011;71302;45.726;-121.810;2023-07-09T12:40:23;1.67;;;1.23;;
80651;SDS011;71302;45.726;-121.810;2023-07-09T12:42:53;1.30;;;1.20;;
80651;SDS011;71302;45.726;-121.810;2023-07-09T12:45:22;1.17;;;1.08;;
80651;SDS011;71302;45.726;-121.810;2023-07-09T12:47:50;1.65;;;1.55;;
80651;SDS011;71302;45.726;-121.810;2023-07-09T12:50:33;1.50;;;1.40;;
80651;SDS011;71302;45.726;-121.810;2023-07-09T12:53:13;1.70;;;1.45;;
80651;SDS011;71302;45.726;-121.810;2023-07-09T12:55:41;2.05;;;1.77;;
80651;SDS011;71302;45.726;-121.810;2023-07-09T12:58:09;2.15;;;1.92;;
80651;SDS011;71302;45.726;-121.810;2023-07-09T13:00:37;1.88;;;1.75;;
80651;SDS011;71302;45.726;-121.810;2023-07-09T13:03:08;2.15;;;1.40;;
80651;SDS011;71302;45.726;-121.810;2023-07-09T13:05:38;1.40;;;1.30;;
80651;SDS011;71302;45.726;-121.810;2023-07-09T13:08:05;1.55;;;1.45;;
80651;SDS011;71302;45.726;-121.810;2023-07-09T13:10:31;1.40;;;1.30;;
80651;SDS011;71302;45.726;-121.810;2023-07-09T13:13:02;1.60;;;1.50;;
80651;SDS011;71302;45.726;-121.810;2023-07-09T13:15:30;1.67;;;1.45;;
80651;SDS011;71302;45.726;-121.810;2023-07-09T13:18:01;1.65;;;1.40;;
80651;SDS011;71302;45.726;-121.810;2023-07-09T13:20:31;1.60;;;1.50;;
80651;SDS011;71302;45.726;-121.810;2023-07-09T13:22:58;1.88;;;1.35;;
80651;SDS011;71302;45.726;-121.810;2023-07-09T13:25:25;1.35;;;1.25;;
80651;SDS011;71302;45.726;-121.810;2023-07-09T13:27:53;1.92;;;1.40;;
80651;SDS011;71302;45.726;-121.810;2023-07-09T13:30:19;1.38;;;1.23;;
80651;SDS011;71302;45.726;-121.810;2023-07-09T13:32:46;1.50;;;1.40;;
80651;SDS011;71302;45.726;-121.810;2023-07-09T13:35:18;1.33;;;1.23;;
80651;SDS011;71302;45.726;-121.810;2023-07-09T13:37:46;1.55;;;1.45;;
80651;SDS011;71302;45.726;-121.810;2023-07-09T13:40:14;1.77;;;1.30;;
80651;SDS011;71302;45.726;-121.810;2023-07-09T13:42:41;1.48;;;1.30;;
80651;SDS011;71302;45.726;-121.810;2023-07-09T13:45:29;1.33;;;1.23;;
80651;SDS011;71302;45.726;-121.810;2023-07-09T13:47:56;1.20;;;1.02;;
80651;SDS011;71302;45.726;-121.810;2023-07-09T13:50:23;1.50;;;1.15;;
80651;SDS011;71302;45.726;-121.810;2023-07-09T13:52:49;2.15;;;1.52;;
80651;SDS011;71302;45.726;-121.810;2023-07-09T13:55:17;1.30;;;1.20;;
80651;SDS011;71302;45.726;-121.810;2023-07-09T13:57:44;1.25;;;1.15;;
80651;SDS011;71302;45.726;-121.810;2023-07-09T14:00:11;0.93;;;0.93;;
80651;SDS011;71302;45.726;-121.810;2023-07-09T14:04:20;1.65;;;1.55;;
80651;SDS011;71302;45.726;-121.810;2023-07-09T14:06:47;3.13;;;1.80;;
80651;SDS011;71302;45.726;-121.810;2023-07-09T14:09:14;2.90;;;2.05;;
80651;SDS011;71302;45.726;-121.810;2023-07-09T14:11:43;2.88;;;2.22;;
80651;SDS011;71302;45.726;-121.810;2023-07-09T14:14:17;2.42;;;2.22;;
80651;SDS011;71302;45.726;-121.810;2023-07-09T14:16:44;3.25;;;2.47;;
80651;SDS011;71302;45.726;-121.810;2023-07-09T14:19:14;2.22;;;2.08;;
80651;SDS011;71302;45.726;-121.810;2023-07-09T14:21:42;5.60;;;2.83;;
80651;SDS011;71302;45.726;-121.810;2023-07-09T14:24:29;4.13;;;2.30;;
80651;SDS011;71302;45.726;-121.810;2023-07-09T14:26:56;2.17;;;1.98;;
80651;SDS011;71302;45.726;-121.810;2023-07-09T14:29:23;2.88;;;2.00;;
80651;SDS011;71302;45.726;-121.810;2023-07-09T14:31:51;2.70;;;2.00;;
80651;SDS011;71302;45.726;-121.810;2023-07-09T14:36:45;2.45;;;2.15;;
80651;SDS011;71302;45.726;-121.810;2023-07-09T14:39:12;2.35;;;2.15;;
80651;SDS011;71302;45.726;-121.810;2023-07-09T14:41:39;3.53;;;2.22;;
80651;SDS011;71302;45.726;-121.810;2023-07-09T14:44:24;5.15;;;1.90;;
80651;SDS011;71302;45.726;-121.810;2023-07-09T14:46:51;4.00;;;2.30;;
80651;SDS011;71302;45.726;-121.810;2023-07-09T14:49:19;3.25;;;1.90;;
80651;SDS011;71302;45.726;-121.810;2023-07-09T14:51:46;3.67;;;2.88;;
80651;SDS011;71302;45.726;-121.810;2023-07-09T14:54:23;2.80;;;2.47;;
80651;SDS011;71302;45.726;-121.810;2023-07-09T14:56:52;3.50;;;1.98;;
80651;SDS011;71302;45.726;-121.810;2023-07-09T14:59:19;2.78;;;2.15;;
80651;SDS011;71302;45.726;-121.810;2023-07-09T15:01:46;2.70;;;2.03;;
80651;SDS011;71302;45.726;-121.810;2023-07-09T15:06:52;2.55;;;2.35;;
80651;SDS011;71302;45.726;-121.810;2023-07-09T15:09:20;1.98;;;1.63;;
80651;SDS011;71302;45.726;-121.810;2023-07-09T15:11:51;3.08;;;2.30;;
80651;SDS011;71302;45.726;-121.810;2023-07-09T15:14:18;3.00;;;2.15;;